Time;durP1;ratioP1;P1;durP2;ratioP2;P2;SDS_P1;SDS_P2;PMS_P1;PMS_P2;Temp;Humidity;BMP_temperature;BMP_pressure;BME280_temperature;BME280_humidity;BME280_pressure;Samples;Min_cycle;Max_cycle;Signal;HPM_P1;HPM_P2
2021/12/02 00:02:18;;;;;;;9.23;1.55;;;3.80;82.40;;;;;;5069620;28;20024;-45
2021/12/02 00:04:45;;;;;;;15.23;2.90;;;3.80;83.60;;;;;;5075908;28;20035;-46
2021/12/02 00:07:12;;;;;;;10.98;2.22;;;3.90;84.60;;;;;;5067331;28;20078;-46
2021/12/02 00:09:39;;;;;;;10.63;2.15;;;3.80;83.40;;;;;;5069612;28;20035;-45
2021/12/02 00:12:07;;;;;;;12.70;3.25;;;3.80;83.80;;;;;;5069893;28;20029;-45
2021/12/02 00:14:43;;;;;;;12.98;1.90;;;3.80;83.80;;;;;;5069103;28;20040;-45
2021/12/02 00:17:22;;;;;;;11.20;1.90;;;3.80;84.20;;;;;;5069338;28;20489;-46
2021/12/02 00:23:06;;;;;;;9.52;2.80;;;3.90;84.50;;;;;;5069138;28;20102;-45
2021/12/02 00:25:33;;;;;;;9.73;1.85;;;3.90;84.80;;;;;;5049513;28;20230;-45
2021/12/02 00:28:01;;;;;;;10.30;1.95;;;3.80;84.00;;;;;;5068611;28;20087;-47
2021/12/02 00:30:29;;;;;;;10.77;1.45;;;3.90;78.50;;;;;;5068781;28;20021;-46
2021/12/02 00:32:59;;;;;;;7.00;1.10;;;4.10;75.30;;;;;;5068901;28;20028;-44
2021/12/02 00:35:27;;;;;;;8.27;1.45;;;4.20;74.70;;;;;;5068738;28;20442;-44
2021/12/02 00:37:55;;;;;;;4.93;1.33;;;4.30;75.00;;;;;;5068750;28;20040;-44
2021/12/02 00:40:22;;;;;;;4.60;1.13;;;4.40;73.40;;;;;;5068678;28;20040;-44
2021/12/02 00:42:48;;;;;;;7.22;1.23;;;4.30;70.90;;;;;;5051788;28;20058;-45
2021/12/02 00:45:15;;;;;;;6.78;1.13;;;4.30;72.20;;;;;;5069074;28;20081;-43
2021/12/02 00:47:42;;;;;;;7.35;1.40;;;4.30;72.20;;;;;;5051570;28;20109;-42
2021/12/02 00:50:09;;;;;;;7.82;1.20;;;4.30;73.40;;;;;;5052086;28;20029;-43
2021/12/02 00:52:37;;;;;;;11.30;1.95;;;4.40;74.40;;;;;;5076989;28;20470;-44
2021/12/02 00:55:05;;;;;;;6.82;1.50;;;4.40;74.80;;;;;;5051158;28;20035;-43
2021/12/02 00:57:32;;;;;;;15.10;1.55;;;4.50;73.00;;;;;;5068770;28;20036;-43
2021/12/02 01:00:03;;;;;;;6.70;1.58;;;4.50;71.80;;;;;;5068884;28;20081;-43
2021/12/02 01:02:34;;;;;;;7.03;1.58;;;4.50;70.10;;;;;;5065371;28;20028;-46
2021/12/02 01:05:03;;;;;;;6.63;1.73;;;4.60;70.40;;;;;;5069609;28;20529;-43
2021/12/02 01:07:29;;;;;;;4.85;1.50;;;4.50;70.30;;;;;;5069077;28;20036;-48
2021/12/02 01:09:57;;;;;;;7.53;1.30;;;4.60;69.90;;;;;;5060304;28;20032;-43
2021/12/02 01:12:25;;;;;;;8.15;1.60;;;4.70;70.20;;;;;;5065666;28;20020;-43
2021/12/02 01:14:52;;;;;;;6.85;1.20;;;4.70;68.50;;;;;;5073080;28;20033;-43
2021/12/02 01:17:19;;;;;;;7.95;1.38;;;4.60;68.40;;;;;;5073004;28;20154;-43
2021/12/02 01:19:46;;;;;;;13.90;1.80;;;4.50;69.00;;;;;;5072995;28;20646;-43
2021/12/02 01:22:16;;;;;;;8.57;2.05;;;4.50;69.80;;;;;;5059255;28;20424;-46
2021/12/02 01:24:49;;;;;;;5.32;0.90;;;4.50;69.70;;;;;;5071869;28;20461;-44
2021/12/02 01:27:18;;;;;;;10.27;1.25;;;4.40;67.30;;;;;;5072378;28;20048;-44
2021/12/02 01:29:46;;;;;;;7.40;1.48;;;4.50;69.20;;;;;;5073037;28;20025;-46
2021/12/02 01:32:13;;;;;;;4.90;1.40;;;4.50;69.80;;;;;;5058833;28;20039;-44
2021/12/02 01:34:46;;;;;;;9.38;1.60;;;4.40;70.40;;;;;;5062758;28;20040;-44
2021/12/02 01:37:14;;;;;;;8.57;1.23;;;4.50;70.00;;;;;;5072455;28;20028;-44
2021/12/02 01:39:41;;;;;;;6.07;0.90;;;4.60;69.60;;;;;;5072546;28;20020;-44
2021/12/02 01:42:14;;;;;;;8.63;1.80;;;4.60;70.00;;;;;;5072665;28;20587;-46
2021/12/02 01:44:41;;;;;;;9.50;1.35;;;4.70;69.80;;;;;;5072292;28;20032;-45
2021/12/02 01:47:13;;;;;;;10.40;1.70;;;4.60;70.70;;;;;;5055200;28;20024;-44
2021/12/02 01:49:42;;;;;;;9.73;1.17;;;4.60;71.10;;;;;;5054809;28;20017;-44
2021/12/02 01:52:13;;;;;;;8.77;1.50;;;4.70;69.00;;;;;;5080547;28;20030;-44
2021/12/02 01:54:44;;;;;;;9.35;1.40;;;4.70;69.40;;;;;;5070938;28;20047;-45
2021/12/02 01:57:33;;;;;;;7.78;1.55;;;4.70;69.90;;;;;;5072033;28;20025;-44
2021/12/02 02:00:20;;;;;;;5.72;1.23;;;4.70;70.00;;;;;;5072221;28;20575;-45
2021/12/02 02:02:50;;;;;;;9.90;1.58;;;4.70;69.20;;;;;;5047761;28;20032;-45
2021/12/02 02:05:17;;;;;;;4.63;1.35;;;4.60;68.10;;;;;;5072138;28;20090;-45
2021/12/02 02:08:21;;;;;;;7.03;1.58;;;4.50;66.40;;;;;;5071596;28;20032;-45
2021/12/02 02:10:49;;;;;;;4.80;1.05;;;4.50;66.90;;;;;;5070904;28;20529;-46
2021/12/02 02:13:19;;;;;;;5.25;1.20;;;4.40;68.30;;;;;;5071817;28;20043;-45
2021/12/02 02:15:49;;;;;;;4.18;0.95;;;4.40;67.00;;;;;;5072113;28;20686;-43
2021/12/02 02:18:23;;;;;;;3.63;0.60;;;4.40;65.60;;;;;;5058552;28;20037;-46
2021/12/02 02:21:09;;;;;;;5.22;1.00;;;4.30;66.30;;;;;;5070519;28;20032;-45
2021/12/02 02:23:41;;;;;;;3.25;0.75;;;4.30;67.40;;;;;;5071413;28;20040;-44
2021/12/02 02:26:09;;;;;;;9.18;1.50;;;4.10;68.60;;;;;;5070611;28;20031;-44
2021/12/02 02:28:36;;;;;;;5.30;1.38;;;4.10;69.00;;;;;;5070375;28;20033;-44
2021/12/02 02:31:06;;;;;;;8.55;1.55;;;4.10;69.80;;;;;;5071786;28;20119;-45
2021/12/02 02:33:37;;;;;;;7.65;1.17;;;4.10;70.60;;;;;;5070920;28;20032;-44
2021/12/02 02:36:08;;;;;;;9.63;1.45;;;4.10;70.90;;;;;;5070929;28;20036;-44
2021/12/02 02:38:35;;;;;;;6.32;1.42;;;4.00;71.40;;;;;;5070708;28;20115;-44
2021/12/02 02:41:05;;;;;;;4.32;1.40;;;4.00;71.30;;;;;;5071025;28;20028;-43
2021/12/02 02:43:34;;;;;;;4.95;1.17;;;4.10;69.50;;;;;;5070879;28;20034;-44
2021/12/02 02:46:05;;;;;;;;;;;4.20;69.20;;;;;;5071924;28;20040;-47
2021/12/02 02:48:31;;;;;;;3.15;0.80;;;4.20;68.00;;;;;;5069795;28;20010;-45
2021/12/02 02:50:58;;;;;;;4.57;1.00;;;4.30;67.40;;;;;;5076810;28;20111;-45
2021/12/02 02:53:27;;;;;;;3.55;0.85;;;4.40;67.60;;;;;;5072914;28;20025;-44
2021/12/02 02:56:13;;;;;;;6.47;1.13;;;4.40;68.50;;;;;;5070887;28;20044;-45
2021/12/02 02:59:04;;;;;;;5.68;1.48;;;4.40;69.20;;;;;;5070620;28;20078;-46
2021/12/02 03:01:41;;;;;;;6.85;1.35;;;4.40;70.40;;;;;;5069753;28;20024;-45
2021/12/02 03:04:30;;;;;;;4.47;0.90;;;4.40;70.60;;;;;;5073005;28;20029;-46
2021/12/02 03:07:08;;;;;;;4.43;1.00;;;4.50;70.60;;;;;;5070649;28;20039;-46
2021/12/02 03:17:31;;;;;;;9.80;1.48;;;4.60;69.90;;;;;;5070518;28;20040;-47
2021/12/02 03:19:59;;;;;;;4.18;0.98;;;4.60;70.30;;;;;;5070267;28;20028;-46
2021/12/02 03:22:29;;;;;;;4.95;1.00;;;4.60;71.20;;;;;;5057345;28;20126;-48
2021/12/02 03:24:56;;;;;;;4.20;1.00;;;4.50;71.80;;;;;;5070014;28;20024;-46
2021/12/02 03:27:24;;;;;;;6.85;0.95;;;4.50;72.10;;;;;;5069670;28;20080;-44
2021/12/02 03:29:50;;;;;;;4.82;1.20;;;4.50;72.00;;;;;;5070158;28;20036;-44
2021/12/02 03:32:17;;;;;;;6.07;1.90;;;4.50;73.10;;;;;;5060546;28;20028;-47
2021/12/02 03:34:44;;;;;;;7.80;1.77;;;4.50;74.60;;;;;;5069252;28;20040;-47
2021/12/02 03:37:11;;;;;;;9.55;1.58;;;4.30;76.60;;;;;;5052986;28;20108;-48
2021/12/02 03:39:38;;;;;;;10.30;1.50;;;4.20;77.50;;;;;;5070025;28;20048;-45
2021/12/02 03:42:05;;;;;;;5.13;1.10;;;4.20;77.90;;;;;;5069723;28;20032;-44
2021/12/02 03:44:32;;;;;;;7.47;1.23;;;4.10;78.50;;;;;;5069552;28;20119;-44
2021/12/02 03:47:00;;;;;;;7.45;1.75;;;4.00;79.00;;;;;;5067107;28;20036;-48
2021/12/02 03:49:27;;;;;;;5.35;1.13;;;4.00;79.30;;;;;;5069264;28;20169;-45
2021/12/02 03:51:53;;;;;;;6.10;0.93;;;3.90;79.30;;;;;;5077934;28;20345;-44
2021/12/02 03:54:22;;;;;;;7.20;1.77;;;3.90;79.00;;;;;;5069601;28;20037;-46
2021/12/02 03:56:49;;;;;;;6.43;0.82;;;3.90;78.80;;;;;;5068984;28;20031;-46
2021/12/02 03:59:16;;;;;;;6.43;1.10;;;4.00;78.80;;;;;;5051378;28;20047;-43
2021/12/02 04:01:43;;;;;;;7.13;2.05;;;4.00;78.70;;;;;;5050966;28;20067;-43
2021/12/02 04:04:10;;;;;;;8.82;1.70;;;3.90;78.50;;;;;;5076946;28;20107;-44
2021/12/02 04:06:37;;;;;;;7.20;1.00;;;3.90;77.90;;;;;;5068143;28;20388;-44
2021/12/02 04:09:14;;;;;;;3.60;0.95;;;3.90;77.90;;;;;;5069142;28;20458;-44
2021/12/02 04:11:54;;;;;;;2.88;0.88;;;4.00;78.10;;;;;;5069098;28;20031;-43
2021/12/02 04:14:33;;;;;;;3.65;1.65;;;4.00;78.50;;;;;;5067041;28;20032;-44
2021/12/02 04:17:05;;;;;;;5.22;1.13;;;4.00;79.00;;;;;;5069105;28;20334;-47
2021/12/02 04:19:32;;;;;;;5.47;1.05;;;4.00;79.90;;;;;;5069312;28;20036;-43
2021/12/02 04:21:59;;;;;;;11.50;2.90;;;4.10;80.30;;;;;;5068916;28;20039;-44
2021/12/02 04:24:29;;;;;;;8.35;1.52;;;4.10;81.60;;;;;;5068791;28;20108;-43
2021/12/02 04:26:55;;;;;;;6.97;1.75;;;4.20;81.90;;;;;;5057946;28;20120;-45
2021/12/02 04:29:24;;;;;;;4.18;1.48;;;4.20;82.10;;;;;;5029007;28;20053;-43
2021/12/02 04:31:54;;;;;;;6.82;2.10;;;4.20;82.20;;;;;;5029348;28;20517;-44
2021/12/02 04:34:20;;;;;;;8.27;1.83;;;4.20;82.30;;;;;;5028516;28;20105;-48
2021/12/02 04:36:47;;;;;;;18.52;1.83;;;4.20;82.70;;;;;;5028708;28;20036;-43
2021/12/02 04:39:14;;;;;;;11.57;1.63;;;4.20;82.80;;;;;;5029277;28;20103;-43
2021/12/02 04:41:42;;;;;;;8.60;1.55;;;4.20;82.80;;;;;;5028771;28;20034;-46
2021/12/02 04:44:09;;;;;;;11.55;1.35;;;4.30;82.50;;;;;;5028489;28;20422;-46
2021/12/02 04:46:36;;;;;;;9.18;1.75;;;4.20;82.20;;;;;;5044284;28;20068;-49
2021/12/02 04:49:03;;;;;;;7.88;1.10;;;4.20;82.20;;;;;;5028793;28;20040;-46
2021/12/02 04:51:30;;;;;;;6.43;1.20;;;4.10;82.20;;;;;;5028464;28;20048;-43
2021/12/02 04:54:00;;;;;;;8.95;1.63;;;4.10;82.50;;;;;;5028221;28;20029;-44
2021/12/02 04:56:27;;;;;;;7.05;1.60;;;4.10;82.70;;;;;;5028003;28;20029;-43
2021/12/02 04:58:53;;;;;;;5.55;0.90;;;4.10;82.90;;;;;;5028898;28;20053;-44
2021/12/02 05:01:21;;;;;;;8.25;1.30;;;4.10;83.10;;;;;;5028761;28;20494;-42
2021/12/02 05:03:46;;;;;;;9.68;1.50;;;4.10;83.30;;;;;;5027790;28;20108;-44
2021/12/02 05:06:14;;;;;;;7.30;1.25;;;4.10;83.40;;;;;;5028213;28;20157;-43
2021/12/02 05:08:41;;;;;;;11.13;1.40;;;4.10;83.40;;;;;;5026614;28;20462;-43
2021/12/02 05:11:08;;;;;;;11.38;1.92;;;4.10;83.70;;;;;;5027566;28;20370;-44
2021/12/02 05:13:35;;;;;;;7.38;1.20;;;4.10;83.80;;;;;;5043026;28;20111;-45
2021/12/02 05:16:02;;;;;;;9.48;1.40;;;4.10;83.80;;;;;;5026359;28;20037;-42
2021/12/02 05:18:29;;;;;;;5.97;0.90;;;4.00;84.10;;;;;;5025975;28;20348;-43
2021/12/02 05:20:56;;;;;;;10.88;1.65;;;4.00;84.40;;;;;;5027547;28;20038;-44
2021/12/02 05:23:23;;;;;;;7.28;1.50;;;4.00;84.30;;;;;;5026324;28;20021;-42
2021/12/02 05:25:50;;;;;;;6.18;1.58;;;4.00;84.40;;;;;;5027557;28;20026;-43
2021/12/02 05:28:18;;;;;;;10.05;2.17;;;4.00;84.40;;;;;;5041150;28;20128;-44
2021/12/02 05:30:44;;;;;;;8.38;2.30;;;3.90;84.50;;;;;;5048337;28;20041;-44
2021/12/02 05:33:12;;;;;;;7.53;2.92;;;4.00;84.50;;;;;;5051637;28;20021;-42
2021/12/02 05:35:40;;;;;;;9.88;1.92;;;3.90;84.50;;;;;;5049069;28;20327;-43
2021/12/02 05:38:06;;;;;;;12.93;2.00;;;3.90;84.50;;;;;;5050385;28;20032;-43
2021/12/02 05:40:34;;;;;;;7.95;1.33;;;3.90;84.30;;;;;;5047816;28;20039;-44
2021/12/02 05:43:02;;;;;;;9.38;1.55;;;3.80;84.30;;;;;;5049578;28;20025;-42
2021/12/02 05:45:29;;;;;;;6.93;1.48;;;3.80;84.10;;;;;;5047945;28;20056;-44
2021/12/02 05:47:56;;;;;;;7.70;1.52;;;3.70;84.10;;;;;;5061469;28;20035;-43
2021/12/02 05:50:23;;;;;;;10.98;2.50;;;3.60;84.10;;;;;;5068069;28;20465;-43
2021/12/02 05:52:50;;;;;;;7.95;1.55;;;3.50;84.20;;;;;;5067595;28;20029;-43
2021/12/02 05:55:18;;;;;;;4.72;1.02;;;3.50;84.30;;;;;;5052472;28;20037;-42
2021/12/02 05:57:43;;;;;;;5.05;1.08;;;3.50;84.10;;;;;;5059596;28;20037;-43
2021/12/02 06:00:11;;;;;;;5.72;1.20;;;3.40;84.10;;;;;;5051895;28;20524;-45
2021/12/02 06:02:41;;;;;;;7.18;1.38;;;3.40;83.80;;;;;;5052582;28;20102;-43
2021/12/02 06:05:08;;;;;;;6.07;1.05;;;3.40;83.20;;;;;;5049973;28;20052;-43
2021/12/02 06:07:39;;;;;;;6.10;2.13;;;3.40;82.70;;;;;;5051617;28;20025;-43
2021/12/02 06:10:06;;;;;;;2.75;0.73;;;3.40;82.20;;;;;;5051382;28;20029;-43
2021/12/02 06:12:35;;;;;;;9.18;2.00;;;3.30;81.60;;;;;;5043088;28;20068;-45
2021/12/02 06:15:03;;;;;;;8.88;1.50;;;3.30;81.70;;;;;;5053454;28;20103;-45
2021/12/02 06:17:29;;;;;;;8.85;1.33;;;3.20;81.70;;;;;;5050739;28;20041;-46
2021/12/02 06:19:56;;;;;;;5.55;1.60;;;3.20;81.60;;;;;;5050247;28;20037;-46
2021/12/02 06:22:23;;;;;;;5.32;1.98;;;3.00;81.40;;;;;;5052271;28;20474;-43
2021/12/02 06:25:43;;;;;;;6.43;1.13;;;2.90;82.00;;;;;;5042094;28;20045;-43
2021/12/02 06:27:35;;;;;;;3.40;1.15;;;2.90;82.40;;;;;;5064255;28;20817;-45
2021/12/02 06:30:03;;;;;;;3.55;0.90;;;2.90;82.30;;;;;;5071069;28;20036;-44
2021/12/02 06:32:29;;;;;;;4.55;0.80;;;2.90;82.70;;;;;;5055167;28;20085;-44
2021/12/02 06:34:56;;;;;;;2.70;1.67;;;2.80;82.80;;;;;;5066028;28;20028;-45
2021/12/02 06:37:25;;;;;;;7.28;1.52;;;2.70;82.90;;;;;;5071160;28;20345;-43
2021/12/02 06:39:52;;;;;;;5.40;1.15;;;2.60;83.60;;;;;;5070928;28;20043;-44
2021/12/02 06:42:19;;;;;;;8.18;2.65;;;2.60;83.70;;;;;;5052893;28;20044;-45
2021/12/02 06:44:46;;;;;;;4.85;1.45;;;2.50;83.30;;;;;;5070813;28;20029;-43
2021/12/02 06:47:16;;;;;;;5.97;0.90;;;2.50;83.10;;;;;;5070755;28;20084;-44
2021/12/02 06:49:42;;;;;;;5.35;1.00;;;2.50;83.10;;;;;;5070806;28;20121;-43
2021/12/02 06:52:12;;;;;;;6.55;1.70;;;2.40;83.50;;;;;;5054651;28;20484;-44
2021/12/02 06:54:39;;;;;;;6.60;1.42;;;2.40;83.80;;;;;;5053409;28;20039;-44
2021/12/02 06:57:06;;;;;;;5.60;1.52;;;2.40;83.50;;;;;;5056184;28;20047;-43
2021/12/02 06:59:33;;;;;;;6.78;1.33;;;2.40;83.50;;;;;;5070543;28;20033;-44
2021/12/02 07:02:00;;;;;;;4.13;1.00;;;2.30;83.40;;;;;;5070274;28;20115;-45
2021/12/02 07:04:27;;;;;;;3.28;1.00;;;2.30;83.80;;;;;;5086068;28;20046;-43
2021/12/02 07:06:54;;;;;;;4.38;1.30;;;2.30;83.80;;;;;;5071465;28;20048;-46
2021/12/02 07:09:21;;;;;;;7.57;1.20;;;2.30;83.80;;;;;;5069991;28;20708;-44
2021/12/02 07:11:48;;;;;;;5.68;1.00;;;2.30;83.90;;;;;;5052402;28;20031;-45
2021/12/02 07:14:17;;;;;;;7.07;2.28;;;2.30;84.10;;;;;;5072053;28;20042;-43
2021/12/02 07:16:44;;;;;;;7.45;1.35;;;2.40;84.20;;;;;;5070059;28;20048;-43
2021/12/02 07:19:12;;;;;;;7.45;1.20;;;2.40;84.30;;;;;;5070131;28;20334;-44
2021/12/02 07:21:40;;;;;;;5.53;0.95;;;2.50;84.40;;;;;;5068588;28;20034;-45
2021/12/02 07:24:15;;;;;;;5.18;1.17;;;2.50;84.60;;;;;;5053196;28;20020;-44
2021/12/02 07:26:43;;;;;;;13.38;2.05;;;2.60;84.50;;;;;;5065359;28;20048;-43
2021/12/02 07:29:17;;;;;;;8.63;1.67;;;2.60;84.60;;;;;;5070662;28;20041;-44
2021/12/02 07:31:44;;;;;;;2.25;0.70;;;2.70;84.50;;;;;;5064909;28;20124;-44
2021/12/02 07:34:11;;;;;;;8.80;1.17;;;2.70;84.30;;;;;;5067096;28;20029;-44
2021/12/02 07:36:38;;;;;;;3.55;1.00;;;2.70;84.20;;;;;;5052742;28;20035;-44
2021/12/02 07:39:07;;;;;;;7.68;1.02;;;2.70;84.30;;;;;;5070083;28;20024;-44
2021/12/02 07:41:35;;;;;;;6.75;2.33;;;2.80;84.60;;;;;;5061850;28;20039;-45
2021/12/02 07:44:03;;;;;;;16.58;6.68;;;2.90;84.50;;;;;;5050041;28;20031;-46
2021/12/02 07:46:31;;;;;;;13.75;5.63;;;2.90;84.60;;;;;;5067593;28;20046;-46
2021/12/02 07:48:58;;;;;;;14.30;7.63;;;2.90;84.60;;;;;;5069611;28;20032;-43
2021/12/02 07:51:32;;;;;;;12.68;5.45;;;3.00;84.50;;;;;;5069609;28;20016;-43
2021/12/02 07:53:59;;;;;;;8.40;2.85;;;3.00;84.30;;;;;;5069918;28;20450;-45
2021/12/02 07:56:25;;;;;;;10.27;1.90;;;2.90;84.40;;;;;;5069144;28;20449;-44
2021/12/02 07:58:51;;;;;;;6.78;0.98;;;3.00;84.50;;;;;;5056336;28;20095;-44
2021/12/02 08:01:18;;;;;;;4.28;1.17;;;3.00;84.50;;;;;;5069017;28;20032;-43
2021/12/02 08:03:47;;;;;;;4.78;1.67;;;3.00;84.40;;;;;;5060386;28;20039;-44
2021/12/02 08:06:15;;;;;;;4.25;0.82;;;3.00;84.60;;;;;;5069187;28;20028;-45
2021/12/02 08:08:45;;;;;;;2.25;0.60;;;3.00;84.80;;;;;;5068693;28;20117;-45
2021/12/02 08:11:12;;;;;;;3.40;0.82;;;3.00;84.90;;;;;;5069477;28;20341;-46
2021/12/02 08:13:39;;;;;;;7.18;1.55;;;3.00;84.50;;;;;;5069189;28;20029;-47
2021/12/02 08:16:08;;;;;;;2.03;0.70;;;2.90;84.60;;;;;;5068107;28;20028;-45
2021/12/02 08:18:36;;;;;;;4.45;1.02;;;2.90;85.20;;;;;;5051392;28;20131;-48
2021/12/02 08:21:02;;;;;;;3.47;1.02;;;2.90;85.10;;;;;;5069276;28;20408;-47
2021/12/02 08:23:29;;;;;;;2.70;0.90;;;3.00;85.30;;;;;;5046048;28;20047;-47
2021/12/02 08:25:58;;;;;;;4.15;0.90;;;3.00;85.20;;;;;;5061117;28;20059;-48
2021/12/02 08:28:28;;;;;;;2.08;0.77;;;3.10;85.10;;;;;;5055761;28;20466;-46
2021/12/02 08:30:57;;;;;;;1.35;0.80;;;3.10;85.30;;;;;;5062880;28;20040;-47
2021/12/02 08:33:24;;;;;;;4.63;0.80;;;3.10;85.20;;;;;;5067995;28;20035;-49
2021/12/02 08:35:50;;;;;;;4.82;0.73;;;3.10;85.20;;;;;;5068341;28;20040;-51
2021/12/02 08:38:21;;;;;;;4.85;0.82;;;3.10;85.10;;;;;;5054652;28;20035;-48
2021/12/02 08:40:53;;;;;;;6.15;0.80;;;3.00;85.10;;;;;;5068195;28;20033;-50
2021/12/02 08:43:20;;;;;;;7.03;1.20;;;2.90;85.10;;;;;;5067457;28;20490;-48
2021/12/02 08:45:46;;;;;;;6.15;1.55;;;2.90;85.10;;;;;;5067569;28;20036;-50
2021/12/02 08:48:13;;;;;;;5.95;1.27;;;2.90;85.30;;;;;;5067864;28;20033;-52
2021/12/02 08:50:41;;;;;;;4.82;1.30;;;2.80;85.40;;;;;;5068157;28;20021;-49
2021/12/02 08:53:09;;;;;;;6.80;1.70;;;2.90;85.50;;;;;;5067744;28;20035;-48
2021/12/02 08:55:37;;;;;;;7.28;2.50;;;2.80;85.50;;;;;;5067583;28;20033;-51
2021/12/02 08:58:04;;;;;;;7.05;2.40;;;2.80;85.70;;;;;;5067938;28;20330;-49
2021/12/02 09:00:36;;;;;;;10.88;3.80;;;2.80;85.90;;;;;;5066818;28;20107;-49
2021/12/02 09:03:08;;;;;;;8.68;4.40;;;3.00;86.50;;;;;;5067931;28;20052;-53
2021/12/02 09:05:36;;;;;;;14.65;5.40;;;3.30;86.50;;;;;;5068038;28;20428;-51
2021/12/02 09:08:03;;;;;;;9.10;3.95;;;3.40;85.80;;;;;;5066706;28;20397;-50
2021/12/02 09:10:30;;;;;;;8.45;3.10;;;3.30;85.50;;;;;;5067859;28;20489;-51
2021/12/02 09:12:57;;;;;;;5.05;1.25;;;3.30;86.00;;;;;;5066913;28;20427;-54
2021/12/02 09:15:24;;;;;;;5.18;1.08;;;3.30;85.80;;;;;;5068051;28;20446;-47
2021/12/02 09:17:51;;;;;;;9.07;1.17;;;3.20;85.70;;;;;;5065104;28;20361;-51
2021/12/02 09:20:19;;;;;;;3.13;1.20;;;3.10;85.50;;;;;;5067128;28;20055;-48
2021/12/02 09:22:47;;;;;;;6.25;1.40;;;3.10;85.80;;;;;;5068020;28;20025;-53
2021/12/02 09:25:19;;;;;;;4.65;1.13;;;3.20;86.20;;;;;;5067936;28;20046;-47
2021/12/02 09:27:47;;;;;;;5.40;0.70;;;3.20;86.40;;;;;;5067100;28;20063;-47
2021/12/02 09:30:14;;;;;;;9.45;1.45;;;3.40;86.40;;;;;;5061133;28;20048;-47
2021/12/02 09:32:41;;;;;;;6.97;1.20;;;3.30;86.10;;;;;;5063858;28;20073;-52
2021/12/02 09:35:12;;;;;;;3.00;0.90;;;3.30;85.70;;;;;;5050557;28;20029;-53
2021/12/02 09:37:39;;;;;;;6.63;0.82;;;3.10;84.70;;;;;;5070855;28;20024;-58
2021/12/02 09:40:11;;;;;;;2.65;0.68;;;3.20;85.00;;;;;;5071433;28;20024;-56
2021/12/02 09:42:39;;;;;;;2.80;0.60;;;3.10;84.50;;;;;;5070595;28;20497;-56
2021/12/02 09:45:07;;;;;;;5.55;0.73;;;3.20;84.70;;;;;;5057330;28;20178;-56
2021/12/02 09:47:37;;;;;;;6.10;0.65;;;3.20;84.70;;;;;;5068435;28;20029;-51
2021/12/02 09:50:33;;;;;;;1.50;0.43;;;3.30;84.90;;;;;;5082403;28;20028;-55
2021/12/02 09:53:09;;;;;;;5.32;1.13;;;3.30;85.20;;;;;;5071003;28;20029;-52
2021/12/02 09:55:56;;;;;;;4.03;0.60;;;3.40;85.30;;;;;;5070560;28;20029;-49
2021/12/02 09:58:31;;;;;;;6.45;1.15;;;3.40;85.30;;;;;;5074973;28;20032;-47
2021/12/02 10:01:05;;;;;;;2.15;1.08;;;3.50;85.40;;;;;;5070722;28;20054;-47
2021/12/02 10:03:36;;;;;;;10.38;1.73;;;3.50;85.40;;;;;;5057146;28;20413;-50
2021/12/02 10:06:19;;;;;;;1.98;0.65;;;3.50;85.70;;;;;;5052549;28;20061;-51
2021/12/02 10:11:36;;;;;;;3.42;1.00;;;3.50;85.50;;;;;;5070516;28;20025;-50
2021/12/02 10:14:38;;;;;;;8.63;0.95;;;3.50;85.40;;;;;;5071008;28;20027;-52
2021/12/02 10:23:14;;;;;;;2.13;0.70;;;3.40;85.50;;;;;;5071175;28;20064;-49
2021/12/02 10:25:50;;;;;;;5.43;0.80;;;3.40;85.80;;;;;;5070807;28;20048;-51
2021/12/02 10:28:18;;;;;;;4.78;1.55;;;3.40;85.80;;;;;;5066606;28;20128;-50
2021/12/02 10:30:52;;;;;;;5.90;1.40;;;3.30;86.10;;;;;;5070071;28;20499;-51
2021/12/02 10:33:38;;;;;;;3.88;0.88;;;3.20;86.10;;;;;;5070541;28;20108;-53
2021/12/02 10:36:08;;;;;;;5.88;1.05;;;3.30;86.30;;;;;;5057175;28;20154;-48
2021/12/02 10:38:45;;;;;;;2.88;0.98;;;3.30;86.50;;;;;;5070333;28;20486;-48
2021/12/02 10:41:17;;;;;;;6.10;1.25;;;3.30;86.60;;;;;;5068476;28;20039;-47
2021/12/02 10:44:19;;;;;;;2.97;1.15;;;3.20;86.70;;;;;;5070179;28;20028;-47
2021/12/02 10:47:23;;;;;;;2.40;0.80;;;2.90;87.10;;;;;;5069909;28;20043;-52
2021/12/02 10:49:58;;;;;;;1.55;0.60;;;2.90;87.60;;;;;;5069221;28;20119;-55
2021/12/02 10:52:42;;;;;;;1.95;0.88;;;2.90;87.50;;;;;;5067808;28;20028;-54
2021/12/02 10:55:28;;;;;;;3.78;0.82;;;2.80;87.30;;;;;;5066788;28;20024;-56
2021/12/02 10:57:57;;;;;;;2.45;1.00;;;2.70;87.20;;;;;;5069433;28;20089;-54
2021/12/02 11:00:35;;;;;;;2.72;0.85;;;2.60;87.20;;;;;;5049606;28;20579;-53
2021/12/02 11:03:14;;;;;;;1.65;1.15;;;2.60;87.40;;;;;;5069077;28;20059;-58
2021/12/02 11:05:50;;;;;;;0.60;0.30;;;2.50;87.50;;;;;;5069975;28;20043;-50
2021/12/02 11:08:18;;;;;;;3.65;0.90;;;2.60;87.60;;;;;;5055489;28;20029;-53
2021/12/02 11:11:20;;;;;;;1.25;0.40;;;2.70;87.90;;;;;;5067372;28;20068;-49
2021/12/02 11:13:50;;;;;;;1.00;0.50;;;2.80;87.70;;;;;;5070609;28;20048;-52
2021/12/02 11:16:35;;;;;;;2.65;1.88;;;2.90;87.50;;;;;;5069522;28;20029;-54
2021/12/02 11:19:20;;;;;;;1.02;0.47;;;3.00;87.40;;;;;;5054392;28;20044;-53
2021/12/02 11:21:46;;;;;;;0.57;0.30;;;3.00;87.00;;;;;;5063754;28;20028;-55
2021/12/02 11:24:31;;;;;;;0.50;0.30;;;3.00;86.80;;;;;;5050524;28;20428;-54
2021/12/02 11:27:14;;;;;;;0.80;0.35;;;3.00;86.80;;;;;;5068980;28;20024;-48
2021/12/02 11:30:00;;;;;;;4.13;0.75;;;3.10;86.90;;;;;;5063204;28;20037;-51
2021/12/02 11:32:29;;;;;;;1.85;0.30;;;3.10;86.80;;;;;;5069789;28;20101;-48
2021/12/02 11:35:20;;;;;;;1.75;0.50;;;3.10;86.90;;;;;;5068842;28;20139;-52
2021/12/02 11:37:49;;;;;;;0.85;0.68;;;3.10;87.00;;;;;;5069730;28;20052;-52
2021/12/02 11:40:24;;;;;;;1.52;0.52;;;3.20;87.10;;;;;;5069760;28;20039;-51
2021/12/02 11:42:51;;;;;;;1.23;0.32;;;3.40;87.40;;;;;;5064907;28;20036;-49
2021/12/02 11:45:20;;;;;;;1.70;0.45;;;3.50;87.10;;;;;;5035488;28;20366;-52
2021/12/02 11:47:47;;;;;;;4.05;1.13;;;3.60;87.00;;;;;;5041060;28;20036;-50
2021/12/02 11:50:17;;;;;;;3.15;0.75;;;3.60;86.90;;;;;;5051138;28;20032;-48
2021/12/02 11:52:45;;;;;;;4.55;1.48;;;3.70;86.80;;;;;;5066197;28;20112;-49
2021/12/02 11:55:24;;;;;;;1.40;0.60;;;3.80;86.70;;;;;;5067895;28;20103;-48
2021/12/02 11:57:52;;;;;;;0.90;0.30;;;3.80;86.30;;;;;;5053382;28;20039;-48
2021/12/02 12:00:21;;;;;;;2.08;0.43;;;3.80;86.10;;;;;;5064645;28;20033;-50
2021/12/02 12:03:11;;;;;;;1.80;0.40;;;3.70;85.90;;;;;;5060303;28;20028;-48
2021/12/02 12:05:46;;;;;;;1.13;0.43;;;3.80;86.20;;;;;;5061356;28;20077;-50
2021/12/02 12:08:35;;;;;;;1.23;0.60;;;3.90;86.20;;;;;;5064426;28;20039;-46
2021/12/02 12:11:23;;;;;;;1.00;0.43;;;4.00;86.10;;;;;;5053621;28;20036;-47
2021/12/02 12:14:10;;;;;;;0.77;0.40;;;3.90;85.90;;;;;;5061389;28;20469;-48
2021/12/02 12:17:03;;;;;;;1.00;0.52;;;3.90;86.10;;;;;;5059105;28;20463;-50
2021/12/02 12:19:32;;;;;;;1.45;0.60;;;3.80;85.90;;;;;;5062236;28;20123;-45
2021/12/02 12:22:03;;;;;;;1.73;0.70;;;3.90;86.30;;;;;;5049491;28;20033;-45
2021/12/02 12:24:47;;;;;;;2.50;0.90;;;3.90;86.40;;;;;;5058294;28;20037;-47
2021/12/02 12:27:25;;;;;;;2.33;0.80;;;3.80;85.90;;;;;;5059739;28;20060;-44
2021/12/02 12:35:59;;;;;;;1.08;0.55;;;3.70;86.10;;;;;;5067552;28;20354;-48
2021/12/02 12:38:46;;;;;;;4.13;1.00;;;3.70;86.20;;;;;;5069328;28;20035;-45
2021/12/02 12:41:30;;;;;;;1.02;0.57;;;3.60;86.00;;;;;;5068456;28;20044;-45
2021/12/02 12:43:57;;;;;;;2.05;0.80;;;3.60;86.00;;;;;;5051759;28;20037;-45
2021/12/02 12:46:26;;;;;;;2.78;0.98;;;3.50;86.20;;;;;;5069328;28;20068;-45
2021/12/02 12:48:57;;;;;;;3.10;1.42;;;3.40;86.30;;;;;;5068871;28;20470;-46
2021/12/02 12:51:35;;;;;;;2.38;1.40;;;3.40;86.40;;;;;;5064656;28;20114;-47
2021/12/02 12:54:06;;;;;;;3.95;1.77;;;3.40;86.40;;;;;;5060567;28;20363;-46
2021/12/02 12:56:41;;;;;;;1.65;0.88;;;3.30;86.60;;;;;;5041480;28;20470;-47
2021/12/02 12:59:13;;;;;;;1.05;0.60;;;3.30;86.60;;;;;;5064800;28;20086;-44
2021/12/02 13:01:53;;;;;;;1.85;0.50;;;3.30;86.70;;;;;;5063825;28;20032;-45
2021/12/02 13:04:23;;;;;;;1.98;0.88;;;3.30;86.70;;;;;;5065637;28;20029;-47
2021/12/02 13:07:20;;;;;;;1.92;0.70;;;3.40;86.90;;;;;;5068584;28;20525;-46
2021/12/02 13:10:19;;;;;;;1.20;0.57;;;3.50;86.40;;;;;;5068602;28;20399;-44
2021/12/02 13:12:56;;;;;;;5.37;1.37;;;3.60;86.30;;;;;;5068003;28;20070;-45
2021/12/02 13:15:27;;;;;;;4.28;1.23;;;3.60;85.80;;;;;;5065039;28;20021;-46
2021/12/02 13:18:01;;;;;;;2.65;0.90;;;3.60;85.60;;;;;;5058616;28;20457;-50
2021/12/02 13:20:38;;;;;;;3.45;1.33;;;3.60;85.40;;;;;;5051686;28;20037;-52
2021/12/02 13:23:16;;;;;;;1.80;0.50;;;3.50;84.90;;;;;;5061505;28;20037;-53
2021/12/02 13:25:54;;;;;;;4.28;0.50;;;3.30;84.40;;;;;;5052870;28;20038;-55
2021/12/02 13:28:42;;;;;;;0.63;0.40;;;3.20;84.20;;;;;;5058628;28;20055;-48
2021/12/02 13:31:15;;;;;;;2.28;0.90;;;3.10;85.00;;;;;;5046212;28;20021;-51
2021/12/02 13:33:50;;;;;;;4.43;0.85;;;3.00;85.10;;;;;;5068025;28;20029;-52
2021/12/02 13:36:21;;;;;;;7.60;3.72;;;2.90;85.40;;;;;;5047147;28;20028;-54
2021/12/02 13:39:38;;;;;;;11.60;7.93;;;2.90;85.30;;;;;;5056774;28;20767;-52
2021/12/02 13:42:09;;;;;;;9.82;4.18;;;2.90;85.80;;;;;;5016732;28;20182;-51
2021/12/02 13:44:54;;;;;;;11.75;4.72;;;2.90;86.00;;;;;;5059575;28;20028;-53